sensor_id;sensor_type;location;lat;lon;timestamp;P1;durP1;ratioP1;P2;durP2;ratioP2
29240;SDS011;16268;49.880;8.648;2023-05-07T00:01:23;3.50;;;1.48;;
29240;SDS011;16268;49.880;8.648;2023-05-07T00:03:48;4.32;;;1.45;;
29240;SDS011;16268;49.880;8.648;2023-05-07T00:06:14;3.78;;;1.65;;
29240;SDS011;16268;49.880;8.648;2023-05-07T00:08:40;5.85;;;1.63;;
29240;SDS011;16268;49.880;8.648;2023-05-07T00:11:05;2.42;;;1.33;;
29240;SDS011;16268;49.880;8.648;2023-05-07T00:13:31;4.43;;;1.50;;
29240;SDS011;16268;49.880;8.648;2023-05-07T00:16:00;3.92;;;1.70;;
29240;SDS011;16268;49.880;8.648;2023-05-07T00:18:26;5.20;;;1.60;;
29240;SDS011;16268;49.880;8.648;2023-05-07T00:20:52;3.85;;;1.60;;
29240;SDS011;16268;49.880;8.648;2023-05-07T00:23:17;3.63;;;1.60;;
29240;SDS011;16268;49.880;8.648;2023-05-07T00:25:43;2.97;;;1.58;;
29240;SDS011;16268;49.880;8.648;2023-05-07T00:28:08;4.40;;;1.70;;
29240;SDS011;16268;49.880;8.648;2023-05-07T00:30:34;3.78;;;1.30;;
29240;SDS011;16268;49.880;8.648;2023-05-07T00:32:59;3.97;;;1.50;;
29240;SDS011;16268;49.880;8.648;2023-05-07T00:35:25;3.65;;;1.40;;
29240;SDS011;16268;49.880;8.648;2023-05-07T00:37:51;2.22;;;1.25;;
29240;SDS011;16268;49.880;8.648;2023-05-07T00:40:16;3.88;;;1.67;;
29240;SDS011;16268;49.880;8.648;2023-05-07T00:42:42;3.80;;;1.63;;
29240;SDS011;16268;49.880;8.648;2023-05-07T00:45:11;3.42;;;1.70;;
29240;SDS011;16268;49.880;8.648;2023-05-07T00:47:38;3.63;;;1.65;;
29240;SDS011;16268;49.880;8.648;2023-05-07T00:50:04;3.88;;;1.55;;
29240;SDS011;16268;49.880;8.648;2023-05-07T00:52:30;3.78;;;1.67;;
29240;SDS011;16268;49.880;8.648;2023-05-07T00:54:56;3.88;;;1.60;;
29240;SDS011;16268;49.880;8.648;2023-05-07T00:57:21;3.20;;;1.52;;
29240;SDS011;16268;49.880;8.648;2023-05-07T00:59:50;4.60;;;1.73;;
29240;SDS011;16268;49.880;8.648;2023-05-07T01:02:16;3.20;;;1.88;;
29240;SDS011;16268;49.880;8.648;2023-05-07T01:04:42;4.15;;;1.60;;
29240;SDS011;16268;49.880;8.648;2023-05-07T01:07:07;3.72;;;1.70;;
29240;SDS011;16268;49.880;8.648;2023-05-07T01:09:33;3.83;;;1.73;;
29240;SDS011;16268;49.880;8.648;2023-05-07T01:12:00;4.20;;;1.90;;
29240;SDS011;16268;49.880;8.648;2023-05-07T01:14:26;4.30;;;2.00;;
29240;SDS011;16268;49.880;8.648;2023-05-07T01:16:52;4.13;;;1.83;;
29240;SDS011;16268;49.880;8.648;2023-05-07T01:19:18;5.15;;;2.13;;
29240;SDS011;16268;49.880;8.648;2023-05-07T01:21:47;4.55;;;2.13;;
29240;SDS011;16268;49.880;8.648;2023-05-07T01:24:14;5.32;;;2.40;;
29240;SDS011;16268;49.880;8.648;2023-05-07T01:26:39;4.80;;;2.33;;
29240;SDS011;16268;49.880;8.648;2023-05-07T01:29:05;5.80;;;2.70;;
29240;SDS011;16268;49.880;8.648;2023-05-07T01:31:32;5.45;;;2.90;;
29240;SDS011;16268;49.880;8.648;2023-05-07T01:33:59;5.85;;;2.90;;
29240;SDS011;16268;49.880;8.648;2023-05-07T01:36:25;7.15;;;2.95;;
29240;SDS011;16268;49.880;8.648;2023-05-07T01:38:53;5.15;;;2.70;;
29240;SDS011;16268;49.880;8.648;2023-05-07T01:41:19;5.80;;;2.95;;
29240;SDS011;16268;49.880;8.648;2023-05-07T01:43:46;5.45;;;2.70;;
29240;SDS011;16268;49.880;8.648;2023-05-07T01:46:12;5.93;;;2.47;;
29240;SDS011;16268;49.880;8.648;2023-05-07T01:48:39;5.15;;;2.30;;
29240;SDS011;16268;49.880;8.648;2023-05-07T01:51:06;6.15;;;2.50;;
29240;SDS011;16268;49.880;8.648;2023-05-07T01:53:39;4.30;;;2.25;;
29240;SDS011;16268;49.880;8.648;2023-05-07T01:56:05;5.70;;;2.20;;
29240;SDS011;16268;49.880;8.648;2023-05-07T01:58:31;6.28;;;2.65;;
29240;SDS011;16268;49.880;8.648;2023-05-07T02:00:57;5.60;;;2.65;;
29240;SDS011;16268;49.880;8.648;2023-05-07T02:03:22;5.72;;;2.47;;
29240;SDS011;16268;49.880;8.648;2023-05-07T02:05:48;6.40;;;2.90;;
29240;SDS011;16268;49.880;8.648;2023-05-07T02:08:13;5.72;;;2.70;;
29240;SDS011;16268;49.880;8.648;2023-05-07T02:10:39;5.32;;;2.95;;
29240;SDS011;16268;49.880;8.648;2023-05-07T02:13:05;5.10;;;2.50;;
29240;SDS011;16268;49.880;8.648;2023-05-07T02:15:30;6.05;;;2.80;;
29240;SDS011;16268;49.880;8.648;2023-05-07T02:18:00;5.28;;;2.65;;
29240;SDS011;16268;49.880;8.648;2023-05-07T02:20:29;4.43;;;2.33;;
29240;SDS011;16268;49.880;8.648;2023-05-07T02:22:55;4.20;;;2.60;;
29240;SDS011;16268;49.880;8.648;2023-05-07T02:25:21;6.68;;;3.00;;
29240;SDS011;16268;49.880;8.648;2023-05-07T02:27:46;7.03;;;3.05;;
29240;SDS011;16268;49.880;8.648;2023-05-07T02:30:13;5.68;;;2.70;;
29240;SDS011;16268;49.880;8.648;2023-05-07T02:32:39;6.28;;;2.78;;
29240;SDS011;16268;49.880;8.648;2023-05-07T02:35:04;5.85;;;2.50;;
29240;SDS011;16268;49.880;8.648;2023-05-07T02:37:30;5.03;;;2.60;;
29240;SDS011;16268;49.880;8.648;2023-05-07T02:39:56;7.22;;;2.67;;
29240;SDS011;16268;49.880;8.648;2023-05-07T02:42:21;4.65;;;2.42;;
29240;SDS011;16268;49.880;8.648;2023-05-07T02:44:47;4.35;;;2.40;;
29240;SDS011;16268;49.880;8.648;2023-05-07T02:47:13;5.50;;;2.60;;
29240;SDS011;16268;49.880;8.648;2023-05-07T02:49:40;6.03;;;2.45;;
29240;SDS011;16268;49.880;8.648;2023-05-07T02:52:05;4.63;;;2.47;;
29240;SDS011;16268;49.880;8.648;2023-05-07T02:54:31;4.22;;;2.03;;
29240;SDS011;16268;49.880;8.648;2023-05-07T02:56:57;5.78;;;2.30;;
29240;SDS011;16268;49.880;8.648;2023-05-07T02:59:23;6.60;;;3.00;;
29240;SDS011;16268;49.880;8.648;2023-05-07T03:01:50;5.57;;;2.20;;
29240;SDS011;16268;49.880;8.648;2023-05-07T03:04:15;8.20;;;2.63;;
29240;SDS011;16268;49.880;8.648;2023-05-07T03:06:41;4.18;;;2.40;;
29240;SDS011;16268;49.880;8.648;2023-05-07T03:09:07;5.45;;;2.30;;
29240;SDS011;16268;49.880;8.648;2023-05-07T03:11:32;4.05;;;2.20;;
29240;SDS011;16268;49.880;8.648;2023-05-07T03:13:58;5.03;;;2.22;;
29240;SDS011;16268;49.880;8.648;2023-05-07T03:16:23;4.95;;;2.17;;
29240;SDS011;16268;49.880;8.648;2023-05-07T03:18:49;4.53;;;2.17;;
29240;SDS011;16268;49.880;8.648;2023-05-07T03:21:14;5.15;;;2.40;;
29240;SDS011;16268;49.880;8.648;2023-05-07T03:23:40;5.18;;;2.00;;
29240;SDS011;16268;49.880;8.648;2023-05-07T03:26:05;6.78;;;2.40;;
29240;SDS011;16268;49.880;8.648;2023-05-07T03:28:31;4.60;;;2.10;;
29240;SDS011;16268;49.880;8.648;2023-05-07T03:30:56;4.38;;;2.05;;
29240;SDS011;16268;49.880;8.648;2023-05-07T03:33:22;6.55;;;2.10;;
29240;SDS011;16268;49.880;8.648;2023-05-07T03:35:47;4.63;;;2.22;;
29240;SDS011;16268;49.880;8.648;2023-05-07T03:38:13;3.25;;;1.88;;
29240;SDS011;16268;49.880;8.648;2023-05-07T03:40:38;4.78;;;1.85;;
29240;SDS011;16268;49.880;8.648;2023-05-07T03:43:04;4.30;;;1.80;;
29240;SDS011;16268;49.880;8.648;2023-05-07T03:45:30;5.47;;;2.10;;
29240;SDS011;16268;49.880;8.648;2023-05-07T03:47:55;6.00;;;1.95;;
29240;SDS011;16268;49.880;8.648;2023-05-07T03:50:21;5.40;;;2.22;;
29240;SDS011;16268;49.880;8.648;2023-05-07T03:52:46;3.28;;;1.98;;
29240;SDS011;16268;49.880;8.648;2023-05-07T03:55:12;4.97;;;1.92;;
29240;SDS011;16268;49.880;8.648;2023-05-07T03:57:37;5.43;;;2.20;;
29240;SDS011;16268;49.880;8.648;2023-05-07T04:00:03;3.78;;;1.92;;
29240;SDS011;16268;49.880;8.648;2023-05-07T04:02:30;4.28;;;2.10;;
29240;SDS011;16268;49.880;8.648;2023-05-07T04:04:55;4.57;;;2.10;;
29240;SDS011;16268;49.880;8.648;2023-05-07T04:07:21;5.70;;;2.10;;
29240;SDS011;16268;49.880;8.648;2023-05-07T04:09:46;4.30;;;2.25;;
29240;SDS011;16268;49.880;8.648;2023-05-07T04:12:12;6.55;;;2.25;;
29240;SDS011;16268;49.880;8.648;2023-05-07T04:14:37;4.20;;;1.92;;
29240;SDS011;16268;49.880;8.648;2023-05-07T04:17:03;4.07;;;2.13;;
29240;SDS011;16268;49.880;8.648;2023-05-07T04:19:28;5.63;;;2.33;;
29240;SDS011;16268;49.880;8.648;2023-05-07T04:21:54;4.22;;;2.25;;
29240;SDS011;16268;49.880;8.648;2023-05-07T04:24:20;5.35;;;2.17;;
29240;SDS011;16268;49.880;8.648;2023-05-07T04:26:46;4.60;;;2.22;;
29240;SDS011;16268;49.880;8.648;2023-05-07T04:29:11;4.75;;;1.92;;
29240;SDS011;16268;49.880;8.648;2023-05-07T04:31:37;4.57;;;2.17;;
29240;SDS011;16268;49.880;8.648;2023-05-07T04:34:02;4.88;;;2.42;;
29240;SDS011;16268;49.880;8.648;2023-05-07T04:36:28;4.75;;;2.00;;
29240;SDS011;16268;49.880;8.648;2023-05-07T04:38:54;4.40;;;2.20;;
29240;SDS011;16268;49.880;8.648;2023-05-07T04:41:19;4.20;;;2.17;;
29240;SDS011;16268;49.880;8.648;2023-05-07T04:43:45;4.00;;;2.30;;
29240;SDS011;16268;49.880;8.648;2023-05-07T04:46:11;4.70;;;2.50;;
29240;SDS011;16268;49.880;8.648;2023-05-07T04:48:36;6.53;;;2.47;;
29240;SDS011;16268;49.880;8.648;2023-05-07T04:51:02;5.40;;;2.20;;
29240;SDS011;16268;49.880;8.648;2023-05-07T04:53:28;4.60;;;2.40;;
29240;SDS011;16268;49.880;8.648;2023-05-07T04:55:56;6.85;;;2.50;;
29240;SDS011;16268;49.880;8.648;2023-05-07T04:58:22;4.95;;;2.45;;
29240;SDS011;16268;49.880;8.648;2023-05-07T05:00:48;5.13;;;2.13;;
29240;SDS011;16268;49.880;8.648;2023-05-07T05:03:14;4.85;;;2.20;;
29240;SDS011;16268;49.880;8.648;2023-05-07T05:05:40;5.43;;;2.20;;
29240;SDS011;16268;49.880;8.648;2023-05-07T05:08:05;5.22;;;2.20;;
29240;SDS011;16268;49.880;8.648;2023-05-07T05:10:31;4.50;;;2.42;;
29240;SDS011;16268;49.880;8.648;2023-05-07T05:12:57;5.40;;;2.40;;
29240;SDS011;16268;49.880;8.648;2023-05-07T05:15:22;4.53;;;2.40;;
29240;SDS011;16268;49.880;8.648;2023-05-07T05:17:48;4.82;;;2.50;;
29240;SDS011;16268;49.880;8.648;2023-05-07T05:20:13;5.30;;;2.30;;
29240;SDS011;16268;49.880;8.648;2023-05-07T05:22:40;5.70;;;2.33;;
29240;SDS011;16268;49.880;8.648;2023-05-07T05:25:07;6.70;;;2.30;;
29240;SDS011;16268;49.880;8.648;2023-05-07T05:27:32;4.82;;;2.20;;
29240;SDS011;16268;49.880;8.648;2023-05-07T05:29:58;4.25;;;2.13;;
29240;SDS011;16268;49.880;8.648;2023-05-07T05:32:23;5.57;;;2.38;;
29240;SDS011;16268;49.880;8.648;2023-05-07T05:34:49;5.63;;;2.28;;
29240;SDS011;16268;49.880;8.648;2023-05-07T05:37:14;6.07;;;2.35;;
29240;SDS011;16268;49.880;8.648;2023-05-07T05:39:40;4.50;;;2.08;;
29240;SDS011;16268;49.880;8.648;2023-05-07T05:42:06;4.22;;;2.00;;
29240;SDS011;16268;49.880;8.648;2023-05-07T05:44:32;3.83;;;2.00;;
29240;SDS011;16268;49.880;8.648;2023-05-07T05:46:57;4.15;;;1.98;;
29240;SDS011;16268;49.880;8.648;2023-05-07T05:49:24;6.28;;;2.00;;
29240;SDS011;16268;49.880;8.648;2023-05-07T05:51:50;5.50;;;1.90;;
29240;SDS011;16268;49.880;8.648;2023-05-07T05:54:15;4.47;;;2.00;;
29240;SDS011;16268;49.880;8.648;2023-05-07T05:56:41;6.45;;;2.10;;
29240;SDS011;16268;49.880;8.648;2023-05-07T05:59:07;4.88;;;1.80;;
29240;SDS011;16268;49.880;8.648;2023-05-07T06:01:32;5.25;;;1.90;;
29240;SDS011;16268;49.880;8.648;2023-05-07T06:03:58;4.57;;;1.85;;
29240;SDS011;16268;49.880;8.648;2023-05-07T06:06:23;5.47;;;1.83;;
29240;SDS011;16268;49.880;8.648;2023-05-07T06:08:49;5.40;;;1.67;;
29240;SDS011;16268;49.880;8.648;2023-05-07T06:11:15;4.93;;;2.10;;
29240;SDS011;16268;49.880;8.648;2023-05-07T06:13:40;4.50;;;2.00;;
29240;SDS011;16268;49.880;8.648;2023-05-07T06:16:06;4.53;;;2.20;;
29240;SDS011;16268;49.880;8.648;2023-05-07T06:18:32;3.00;;;1.60;;
29240;SDS011;16268;49.880;8.648;2023-05-07T06:20:57;4.03;;;1.67;;
29240;SDS011;16268;49.880;8.648;2023-05-07T06:23:23;3.97;;;1.67;;
29240;SDS011;16268;49.880;8.648;2023-05-07T06:25:49;3.45;;;1.90;;
29240;SDS011;16268;49.880;8.648;2023-05-07T06:28:18;3.85;;;1.73;;
29240;SDS011;16268;49.880;8.648;2023-05-07T06:30:43;4.38;;;1.92;;
29240;SDS011;16268;49.880;8.648;2023-05-07T06:33:09;4.38;;;1.90;;
29240;SDS011;16268;49.880;8.648;2023-05-07T06:35:34;3.28;;;1.90;;
29240;SDS011;16268;49.880;8.648;2023-05-07T06:38:00;3.80;;;1.92;;
29240;SDS011;16268;49.880;8.648;2023-05-07T06:40:26;5.68;;;1.88;;
29240;SDS011;16268;49.880;8.648;2023-05-07T06:42:51;4.40;;;1.73;;
29240;SDS011;16268;49.880;8.648;2023-05-07T06:45:17;3.90;;;2.00;;
29240;SDS011;16268;49.880;8.648;2023-05-07T06:47:44;3.17;;;1.80;;
29240;SDS011;16268;49.880;8.648;2023-05-07T06:50:09;5.43;;;2.10;;
29240;SDS011;16268;49.880;8.648;2023-05-07T06:52:35;4.15;;;2.03;;
29240;SDS011;16268;49.880;8.648;2023-05-07T06:55:01;3.80;;;1.98;;
29240;SDS011;16268;49.880;8.648;2023-05-07T06:57:26;3.67;;;2.00;;
29240;SDS011;16268;49.880;8.648;2023-05-07T06:59:52;3.42;;;1.90;;
29240;SDS011;16268;49.880;8.648;2023-05-07T07:02:17;4.13;;;1.90;;
29240;SDS011;16268;49.880;8.648;2023-05-07T07:04:43;3.85;;;1.83;;
29240;SDS011;16268;49.880;8.648;2023-05-07T07:07:09;4.93;;;2.30;;
29240;SDS011;16268;49.880;8.648;2023-05-07T07:09:35;3.85;;;1.90;;
29240;SDS011;16268;49.880;8.648;2023-05-07T07:12:00;3.67;;;2.00;;
29240;SDS011;16268;49.880;8.648;2023-05-07T07:14:26;7.40;;;2.30;;
29240;SDS011;16268;49.880;8.648;2023-05-07T07:16:52;4.18;;;2.10;;
29240;SDS011;16268;49.880;8.648;2023-05-07T07:19:17;5.25;;;2.40;;
29240;SDS011;16268;49.880;8.648;2023-05-07T07:21:43;5.93;;;2.30;;
29240;SDS011;16268;49.880;8.648;2023-05-07T07:24:09;4.22;;;2.47;;
29240;SDS011;16268;49.880;8.648;2023-05-07T07:26:35;4.18;;;2.38;;
29240;SDS011;16268;49.880;8.648;2023-05-07T07:29:00;5.25;;;2.58;;
29240;SDS011;16268;49.880;8.648;2023-05-07T07:31:26;7.32;;;2.47;;
29240;SDS011;16268;49.880;8.648;2023-05-07T07:33:51;7.43;;;2.72;;
29240;SDS011;16268;49.880;8.648;2023-05-07T07:36:17;4.90;;;2.38;;
29240;SDS011;16268;49.880;8.648;2023-05-07T07:38:42;4.22;;;2.10;;
29240;SDS011;16268;49.880;8.648;2023-05-07T07:41:08;4.88;;;2.60;;
29240;SDS011;16268;49.880;8.648;2023-05-07T07:43:34;5.25;;;2.30;;
29240;SDS011;16268;49.880;8.648;2023-05-07T07:46:00;4.00;;;2.20;;
29240;SDS011;16268;49.880;8.648;2023-05-07T07:48:26;3.47;;;2.20;;
29240;SDS011;16268;49.880;8.648;2023-05-07T07:50:52;5.45;;;2.20;;
29240;SDS011;16268;49.880;8.648;2023-05-07T07:53:17;4.20;;;2.20;;
29240;SDS011;16268;49.880;8.648;2023-05-07T07:55:43;3.78;;;2.40;;
29240;SDS011;16268;49.880;8.648;2023-05-07T07:58:09;4.10;;;2.60;;
29240;SDS011;16268;49.880;8.648;2023-05-07T08:00:34;4.57;;;2.60;;
29240;SDS011;16268;49.880;8.648;2023-05-07T08:03:00;4.97;;;2.25;;
29240;SDS011;16268;49.880;8.648;2023-05-07T08:05:28;3.55;;;2.25;;
29240;SDS011;16268;49.880;8.648;2023-05-07T08:07:54;4.65;;;2.30;;
29240;SDS011;16268;49.880;8.648;2023-05-07T08:10:23;4.13;;;2.38;;
29240;SDS011;16268;49.880;8.648;2023-05-07T08:12:49;3.97;;;2.08;;
29240;SDS011;16268;49.880;8.648;2023-05-07T08:15:15;4.22;;;1.85;;
29240;SDS011;16268;49.880;8.648;2023-05-07T08:17:41;4.43;;;2.30;;
29240;SDS011;16268;49.880;8.648;2023-05-07T08:20:07;3.47;;;2.08;;
29240;SDS011;16268;49.880;8.648;2023-05-07T08:22:36;4.75;;;2.25;;
29240;SDS011;16268;49.880;8.648;2023-05-07T08:25:02;4.97;;;2.40;;
29240;SDS011;16268;49.880;8.648;2023-05-07T08:27:28;5.93;;;2.20;;
29240;SDS011;16268;49.880;8.648;2023-05-07T08:29:53;3.53;;;2.25;;
29240;SDS011;16268;49.880;8.648;2023-05-07T08:32:19;4.93;;;2.40;;
29240;SDS011;16268;49.880;8.648;2023-05-07T08:34:45;4.70;;;2.33;;
29240;SDS011;16268;49.880;8.648;2023-05-07T08:37:11;5.05;;;2.20;;
29240;SDS011;16268;49.880;8.648;2023-05-07T08:39:36;5.22;;;2.13;;
29240;SDS011;16268;49.880;8.648;2023-05-07T08:42:02;4.75;;;2.47;;
29240;SDS011;16268;49.880;8.648;2023-05-07T08:44:30;5.32;;;2.30;;
29240;SDS011;16268;49.880;8.648;2023-05-07T08:47:00;4.25;;;2.30;;
29240;SDS011;16268;49.880;8.648;2023-05-07T08:49:27;6.22;;;2.10;;
29240;SDS011;16268;49.880;8.648;2023-05-07T08:51:53;4.28;;;2.40;;
29240;SDS011;16268;49.880;8.648;2023-05-07T08:54:20;6.65;;;2.67;;
29240;SDS011;16268;49.880;8.648;2023-05-07T08:56:46;4.53;;;2.13;;
29240;SDS011;16268;49.880;8.648;2023-05-07T08:59:12;4.50;;;2.38;;
29240;SDS011;16268;49.880;8.648;2023-05-07T09:01:38;4.32;;;2.33;;
29240;SDS011;16268;49.880;8.648;2023-05-07T09:04:04;4.90;;;2.30;;
29240;SDS011;16268;49.880;8.648;2023-05-07T09:06:31;4.75;;;2.45;;
29240;SDS011;16268;49.880;8.648;2023-05-07T09:09:00;4.60;;;2.60;;
29240;SDS011;16268;49.880;8.648;2023-05-07T09:11:26;4.32;;;2.42;;
29240;SDS011;16268;49.880;8.648;2023-05-07T09:13:55;4.60;;;2.40;;
29240;SDS011;16268;49.880;8.648;2023-05-07T09:16:23;4.43;;;2.80;;
29240;SDS011;16268;49.880;8.648;2023-05-07T09:18:53;5.30;;;2.80;;
29240;SDS011;16268;49.880;8.648;2023-05-07T09:21:19;5.47;;;2.80;;
29240;SDS011;16268;49.880;8.648;2023-05-07T09:23:47;6.35;;;3.08;;
29240;SDS011;16268;49.880;8.648;2023-05-07T09:26:15;4.28;;;2.60;;
29240;SDS011;16268;49.880;8.648;2023-05-07T09:28:41;5.20;;;2.92;;
29240;SDS011;16268;49.880;8.648;2023-05-07T09:31:07;4.55;;;2.70;;
29240;SDS011;16268;49.880;8.648;2023-05-07T09:33:33;5.57;;;2.95;;
29240;SDS011;16268;49.880;8.648;2023-05-07T09:36:03;4.18;;;2.50;;
29240;SDS011;16268;49.880;8.648;2023-05-07T09:38:30;5.20;;;2.70;;
29240;SDS011;16268;49.880;8.648;2023-05-07T09:41:11;4.13;;;2.85;;
29240;SDS011;16268;49.880;8.648;2023-05-07T09:43:38;4.68;;;2.58;;
29240;SDS011;16268;49.880;8.648;2023-05-07T09:46:10;5.10;;;2.60;;
29240;SDS011;16268;49.880;8.648;2023-05-07T09:48:38;5.00;;;2.38;;
29240;SDS011;16268;49.880;8.648;2023-05-07T09:51:22;4.70;;;2.60;;
29240;SDS011;16268;49.880;8.648;2023-05-07T09:53:53;4.25;;;2.40;;
29240;SDS011;16268;49.880;8.648;2023-05-07T09:56:20;4.57;;;2.60;;
29240;SDS011;16268;49.880;8.648;2023-05-07T09:58:47;8.30;;;2.40;;
29240;SDS011;16268;49.880;8.648;2023-05-07T10:01:14;5.43;;;2.70;;
29240;SDS011;16268;49.880;8.648;2023-05-07T10:03:42;5.95;;;2.67;;
29240;SDS011;16268;49.880;8.648;2023-05-07T10:06:09;4.47;;;2.50;;
29240;SDS011;16268;49.880;8.648;2023-05-07T10:08:35;4.70;;;2.80;;
29240;SDS011;16268;49.880;8.648;2023-05-07T10:11:05;5.78;;;2.90;;
29240;SDS011;16268;49.880;8.648;2023-05-07T10:13:31;4.43;;;2.20;;
29240;SDS011;16268;49.880;8.648;2023-05-07T10:16:01;4.50;;;2.92;;
29240;SDS011;16268;49.880;8.648;2023-05-07T10:18:33;4.45;;;2.90;;
29240;SDS011;16268;49.880;8.648;2023-05-07T10:21:04;4.50;;;2.22;;
29240;SDS011;16268;49.880;8.648;2023-05-07T10:23:57;5.88;;;2.97;;
29240;SDS011;16268;49.880;8.648;2023-05-07T10:26:25;4.43;;;2.53;;
29240;SDS011;16268;49.880;8.648;2023-05-07T10:28:56;4.65;;;2.35;;
29240;SDS011;16268;49.880;8.648;2023-05-07T10:31:36;4.63;;;2.50;;
29240;SDS011;16268;49.880;8.648;2023-05-07T10:34:32;6.03;;;2.65;;
29240;SDS011;16268;49.880;8.648;2023-05-07T10:37:02;4.90;;;2.47;;
29240;SDS011;16268;49.880;8.648;2023-05-07T10:39:30;4.13;;;2.30;;
29240;SDS011;16268;49.880;8.648;2023-05-07T10:41:56;4.00;;;2.40;;
29240;SDS011;16268;49.880;8.648;2023-05-07T10:44:25;4.45;;;2.40;;
29240;SDS011;16268;49.880;8.648;2023-05-07T10:47:05;4.47;;;2.65;;
29240;SDS011;16268;49.880;8.648;2023-05-07T10:49:33;4.05;;;2.30;;
29240;SDS011;16268;49.880;8.648;2023-05-07T10:52:15;4.55;;;2.55;;
29240;SDS011;16268;49.880;8.648;2023-05-07T10:54:41;5.03;;;2.63;;
29240;SDS011;16268;49.880;8.648;2023-05-07T10:59:56;5.13;;;2.30;;
29240;SDS011;16268;49.880;8.648;2023-05-07T11:02:22;4.22;;;2.40;;
29240;SDS011;16268;49.880;8.648;2023-05-07T11:07:53;4.07;;;2.58;;
29240;SDS011;16268;49.880;8.648;2023-05-07T11:13:14;4.97;;;2.50;;
29240;SDS011;16268;49.880;8.648;2023-05-07T11:15:41;4.53;;;2.28;;
29240;SDS011;16268;49.880;8.648;2023-05-07T11:18:12;3.63;;;2.35;;
29240;SDS011;16268;49.880;8.648;2023-05-07T11:26:00;3.88;;;2.15;;
29240;SDS011;16268;49.880;8.648;2023-05-07T11:28:29;3.80;;;2.30;;
29240;SDS011;16268;49.880;8.648;2023-05-07T11:30:56;4.15;;;2.10;;
29240;SDS011;16268;49.880;8.648;2023-05-07T11:33:22;4.55;;;2.15;;
29240;SDS011;16268;49.880;8.648;2023-05-07T11:35:50;4.78;;;1.92;;
29240;SDS011;16268;49.880;8.648;2023-05-07T11:38:18;3.78;;;2.22;;
29240;SDS011;16268;49.880;8.648;2023-05-07T11:40:54;4.32;;;2.25;;
29240;SDS011;16268;49.880;8.648;2023-05-07T11:43:21;4.28;;;2.40;;
29240;SDS011;16268;49.880;8.648;2023-05-07T11:45:47;4.25;;;2.30;;
29240;SDS011;16268;49.880;8.648;2023-05-07T11:48:13;4.68;;;2.35;;
29240;SDS011;16268;49.880;8.648;2023-05-07T11:50:52;4.57;;;2.15;;
29240;SDS011;16268;49.880;8.648;2023-05-07T11:53:24;3.63;;;1.92;;
29240;SDS011;16268;49.880;8.648;2023-05-07T11:55:57;4.28;;;2.10;;
29240;SDS011;16268;49.880;8.648;2023-05-07T11:58:23;5.53;;;2.40;;
29240;SDS011;16268;49.880;8.648;2023-05-07T12:00:50;3.53;;;2.00;;
29240;SDS011;16268;49.880;8.648;2023-05-07T12:03:17;3.28;;;1.80;;
29240;SDS011;16268;49.880;8.648;2023-05-07T12:05:43;3.65;;;2.13;;
29240;SDS011;16268;49.880;8.648;2023-05-07T12:08:13;3.75;;;1.88;;
29240;SDS011;16268;49.880;8.648;2023-05-07T12:10:40;4.57;;;2.10;;
29240;SDS011;16268;49.880;8.648;2023-05-07T12:13:16;3.83;;;1.95;;
29240;SDS011;16268;49.880;8.648;2023-05-07T12:15:46;3.97;;;2.05;;
29240;SDS011;16268;49.880;8.648;2023-05-07T12:18:12;4.45;;;1.85;;
29240;SDS011;16268;49.880;8.648;2023-05-07T12:20:37;3.53;;;1.88;;
29240;SDS011;16268;49.880;8.648;2023-05-07T12:23:04;5.03;;;1.83;;
29240;SDS011;16268;49.880;8.648;2023-05-07T12:25:39;4.32;;;2.10;;
29240;SDS011;16268;49.880;8.648;2023-05-07T12:28:12;4.47;;;1.80;;
29240;SDS011;16268;49.880;8.648;2023-05-07T12:30:44;3.63;;;1.83;;
29240;SDS011;16268;49.880;8.648;2023-05-07T12:33:11;3.83;;;1.80;;
29240;SDS011;16268;49.880;8.648;2023-05-07T12:35:41;3.30;;;1.88;;
29240;SDS011;16268;49.880;8.648;2023-05-07T12:38:16;2.97;;;1.65;;
29240;SDS011;16268;49.880;8.648;2023-05-07T12:40:49;3.90;;;1.73;;
29240;SDS011;16268;49.880;8.648;2023-05-07T12:43:18;3.20;;;1.65;;
29240;SDS011;16268;49.880;8.648;2023-05-07T12:45:45;4.05;;;1.90;;
29240;SDS011;16268;49.880;8.648;2023-05-07T12:48:13;3.13;;;1.48;;
29240;SDS011;16268;49.880;8.648;2023-05-07T12:50:39;2.85;;;1.60;;
29240;SDS011;16268;49.880;8.648;2023-05-07T12:53:05;3.42;;;1.60;;
29240;SDS011;16268;49.880;8.648;2023-05-07T12:55:42;3.15;;;1.50;;
29240;SDS011;16268;49.880;8.648;2023-05-07T13:00:47;3.88;;;1.75;;
29240;SDS011;16268;49.880;8.648;2023-05-07T13:03:20;3.70;;;2.00;;
29240;SDS011;16268;49.880;8.648;2023-05-07T13:05:47;3.35;;;1.77;;
29240;SDS011;16268;49.880;8.648;2023-05-07T13:08:22;4.72;;;2.00;;
29240;SDS011;16268;49.880;8.648;2023-05-07T13:10:59;3.30;;;1.70;;
29240;SDS011;16268;49.880;8.648;2023-05-07T13:13:28;3.53;;;1.60;;
29240;SDS011;16268;49.880;8.648;2023-05-07T13:15:57;4.10;;;1.60;;
29240;SDS011;16268;49.880;8.648;2023-05-07T13:18:24;3.40;;;1.55;;
29240;SDS011;16268;49.880;8.648;2023-05-07T13:20:50;2.92;;;1.50;;
29240;SDS011;16268;49.880;8.648;2023-05-07T13:23:16;2.92;;;1.58;;
29240;SDS011;16268;49.880;8.648;2023-05-07T13:25:42;3.38;;;1.60;;
29240;SDS011;16268;49.880;8.648;2023-05-07T13:28:07;3.25;;;1.70;;
29240;SDS011;16268;49.880;8.648;2023-05-07T13:30:33;4.10;;;1.65;;
29240;SDS011;16268;49.880;8.648;2023-05-07T13:32:59;3.85;;;1.67;;
29240;SDS011;16268;49.880;8.648;2023-05-07T13:35:25;4.97;;;2.10;;
29240;SDS011;16268;49.880;8.648;2023-05-07T13:37:51;3.70;;;1.73;;
29240;SDS011;16268;49.880;8.648;2023-05-07T13:40:17;3.47;;;1.50;;
29240;SDS011;16268;49.880;8.648;2023-05-07T13:42:43;5.70;;;2.05;;
29240;SDS011;16268;49.880;8.648;2023-05-07T13:45:13;2.97;;;1.70;;
29240;SDS011;16268;49.880;8.648;2023-05-07T13:47:39;3.53;;;1.77;;
29240;SDS011;16268;49.880;8.648;2023-05-07T13:50:08;2.58;;;1.48;;
29240;SDS011;16268;49.880;8.648;2023-05-07T13:52:39;3.40;;;1.60;;
29240;SDS011;16268;49.880;8.648;2023-05-07T13:55:06;3.42;;;1.40;;
29240;SDS011;16268;49.880;8.648;2023-05-07T13:57:32;3.67;;;1.70;;
29240;SDS011;16268;49.880;8.648;2023-05-07T13:59:57;3.33;;;1.35;;
29240;SDS011;16268;49.880;8.648;2023-05-07T14:02:23;3.05;;;1.60;;
29240;SDS011;16268;49.880;8.648;2023-05-07T14:04:48;3.00;;;1.60;;
29240;SDS011;16268;49.880;8.648;2023-05-07T14:07:14;4.38;;;1.70;;
29240;SDS011;16268;49.880;8.648;2023-05-07T14:09:40;4.20;;;1.77;;
29240;SDS011;16268;49.880;8.648;2023-05-07T14:12:05;4.13;;;1.70;;
29240;SDS011;16268;49.880;8.648;2023-05-07T14:14:32;4.78;;;1.63;;
29240;SDS011;16268;49.880;8.648;2023-05-07T14:16:57;3.92;;;1.80;;
29240;SDS011;16268;49.880;8.648;2023-05-07T14:19:23;4.40;;;1.75;;
29240;SDS011;16268;49.880;8.648;2023-05-07T14:21:48;4.07;;;1.70;;
29240;SDS011;16268;49.880;8.648;2023-05-07T14:24:14;3.33;;;1.77;;
29240;SDS011;16268;49.880;8.648;2023-05-07T14:26:40;3.60;;;1.80;;
29240;SDS011;16268;49.880;8.648;2023-05-07T14:29:05;3.45;;;1.83;;
29240;SDS011;16268;49.880;8.648;2023-05-07T14:31:31;3.65;;;1.88;;
29240;SDS011;16268;49.880;8.648;2023-05-07T14:33:57;3.75;;;1.70;;
29240;SDS011;16268;49.880;8.648;2023-05-07T14:36:23;4.22;;;1.90;;
29240;SDS011;16268;49.880;8.648;2023-05-07T14:38:51;3.78;;;1.90;;
29240;SDS011;16268;49.880;8.648;2023-05-07T14:41:18;4.07;;;1.70;;
29240;SDS011;16268;49.880;8.648;2023-05-07T14:43:43;3.90;;;1.90;;
29240;SDS011;16268;49.880;8.648;2023-05-07T14:46:14;3.17;;;1.70;;
29240;SDS011;16268;49.880;8.648;2023-05-07T14:48:45;3.33;;;1.80;;
29240;SDS011;16268;49.880;8.648;2023-05-07T14:51:12;5.03;;;1.90;;
29240;SDS011;16268;49.880;8.648;2023-05-07T14:53:38;4.88;;;2.00;;
29240;SDS011;16268;49.880;8.648;2023-05-07T14:56:05;3.17;;;1.65;;
29240;SDS011;16268;49.880;8.648;2023-05-07T14:58:31;3.03;;;1.60;;
29240;SDS011;16268;49.880;8.648;2023-05-07T15:00:56;2.63;;;1.40;;
29240;SDS011;16268;49.880;8.648;2023-05-07T15:03:22;4.10;;;1.58;;